Time;durP1;ratioP1;P1;durP2;ratioP2;P2;SDS_P1;SDS_P2;PMS_P1;PMS_P2;Temp;Humidity;BMP_temperature;BMP_pressure;BME280_temperature;BME280_humidity;BME280_pressure;Samples;Min_cycle;Max_cycle;Signal;HPM_P1;HPM_P2
2023/08/17 00:01:21;;;;;;;5.97;1.70;;;17.10;89.40;;;;;;5033356;28;20236;-68
2023/08/17 00:03:46;;;;;;;5.63;1.80;;;17.00;89.70;;;;;;5027044;28;20119;-68
2023/08/17 00:06:12;;;;;;;5.78;1.73;;;17.00;89.40;;;;;;5021493;28;20544;-68
2023/08/17 00:08:37;;;;;;;4.95;1.65;;;17.00;89.50;;;;;;5023758;28;20033;-68
2023/08/17 00:11:03;;;;;;;8.18;1.90;;;17.00;89.50;;;;;;5034869;28;20048;-68
2023/08/17 00:13:28;;;;;;;6.30;1.95;;;17.00;89.70;;;;;;5031854;28;20028;-68
2023/08/17 00:15:54;;;;;;;7.15;1.70;;;17.10;89.60;;;;;;5028110;28;20041;-68
2023/08/17 00:18:19;;;;;;;4.38;1.55;;;17.10;89.50;;;;;;5035026;28;20100;-68
2023/08/17 00:20:45;;;;;;;4.80;1.65;;;17.00;89.70;;;;;;5024651;28;20603;-68
2023/08/17 00:23:10;;;;;;;7.20;2.20;;;17.00;90.00;;;;;;5029334;28;20026;-68
2023/08/17 00:25:36;;;;;;;7.90;2.00;;;17.00;89.70;;;;;;5022063;28;20132;-68
2023/08/17 00:28:01;;;;;;;3.92;1.70;;;17.00;89.90;;;;;;5039115;28;20029;-68
2023/08/17 00:30:27;;;;;;;4.88;1.98;;;16.90;89.70;;;;;;5026598;28;20472;-69
2023/08/17 00:32:52;;;;;;;5.90;1.83;;;16.90;89.70;;;;;;5035464;28;20473;-68
2023/08/17 00:35:18;;;;;;;5.68;1.88;;;17.00;89.70;;;;;;5041500;28;20095;-68
2023/08/17 00:37:43;;;;;;;6.68;1.77;;;17.00;89.90;;;;;;5029031;28;20044;-69
2023/08/17 00:40:09;;;;;;;9.65;2.08;;;17.00;89.90;;;;;;5026703;28;20486;-69
2023/08/17 00:42:35;;;;;;;10.18;2.28;;;17.00;90.30;;;;;;5030921;28;20037;-69
2023/08/17 00:45:00;;;;;;;6.82;1.88;;;17.00;90.20;;;;;;5027941;28;20037;-68
2023/08/17 00:47:26;;;;;;;5.60;1.90;;;16.90;89.90;;;;;;5027736;28;20052;-68
2023/08/17 00:49:51;;;;;;;4.65;1.90;;;16.90;90.00;;;;;;5025067;28;20047;-68
2023/08/17 00:52:17;;;;;;;4.65;2.00;;;16.90;90.40;;;;;;5027378;28;20033;-68
2023/08/17 00:54:43;;;;;;;5.65;2.00;;;16.90;90.10;;;;;;5028120;28;20047;-68
2023/08/17 00:57:09;;;;;;;8.70;1.95;;;16.80;90.40;;;;;;5025273;28;20040;-68
2023/08/17 00:59:35;;;;;;;5.38;2.05;;;16.80;90.10;;;;;;5021951;28;20076;-68
2023/08/17 01:02:01;;;;;;;6.05;2.03;;;16.70;90.60;;;;;;5025095;28;20045;-68
2023/08/17 01:04:27;;;;;;;7.55;2.40;;;16.70;91.10;;;;;;5018946;28;20033;-69
2023/08/17 01:06:52;;;;;;;4.38;1.67;;;16.70;91.10;;;;;;5020944;28;20048;-68
2023/08/17 01:09:18;;;;;;;5.85;1.90;;;16.70;90.80;;;;;;5028425;28;20093;-68
2023/08/17 01:12:00;;;;;;;6.95;2.05;;;16.70;90.90;;;;;;5021762;28;20440;-68
2023/08/17 01:14:43;;;;;;;6.28;2.08;;;16.70;91.30;;;;;;5027832;28;20429;-69
2023/08/17 01:17:24;;;;;;;6.32;2.10;;;16.70;91.60;;;;;;5033830;28;20115;-68
2023/08/17 01:19:52;;;;;;;4.70;2.10;;;16.70;91.50;;;;;;5036536;28;20065;-68
2023/08/17 01:22:20;;;;;;;3.15;2.08;;;16.80;91.70;;;;;;5034505;28;20133;-68
2023/08/17 01:24:46;;;;;;;6.40;2.20;;;16.80;91.80;;;;;;5028390;28;20049;-68
2023/08/17 01:27:11;;;;;;;5.22;2.05;;;16.80;91.50;;;;;;5025045;28;20483;-67
2023/08/17 01:29:37;;;;;;;5.63;2.03;;;16.80;91.40;;;;;;5028520;28;20076;-69
2023/08/17 01:32:26;;;;;;;8.75;2.17;;;16.90;91.70;;;;;;5035746;28;20036;-68
2023/08/17 01:35:01;;;;;;;5.28;1.80;;;16.90;91.40;;;;;;5025775;28;20413;-68
2023/08/17 01:37:28;;;;;;;6.88;1.90;;;16.90;91.60;;;;;;5027659;28;20125;-68
2023/08/17 01:39:56;;;;;;;6.15;2.05;;;16.90;91.40;;;;;;5025623;28;20113;-69
2023/08/17 01:42:23;;;;;;;4.90;1.83;;;16.90;91.60;;;;;;5022715;28;20558;-68
2023/08/17 01:44:48;;;;;;;11.90;2.00;;;16.90;91.40;;;;;;5019995;28;20048;-68
2023/08/17 01:47:14;;;;;;;6.45;1.77;;;16.80;91.50;;;;;;5027943;28;20108;-68
2023/08/17 01:49:40;;;;;;;7.43;2.03;;;16.70;91.60;;;;;;5024270;28;20037;-68
2023/08/17 01:52:05;;;;;;;8.60;2.20;;;16.70;91.80;;;;;;5016393;28;20471;-68
2023/08/17 01:54:31;;;;;;;3.53;1.88;;;16.70;91.90;;;;;;5021831;28;20033;-68
2023/08/17 01:56:56;;;;;;;5.63;2.28;;;16.70;92.00;;;;;;5023521;28;20041;-68
2023/08/17 01:59:22;;;;;;;6.53;2.80;;;16.70;92.20;;;;;;5028228;28;20474;-68
2023/08/17 02:01:47;;;;;;;7.50;2.30;;;16.70;92.50;;;;;;5028994;28;20042;-68
2023/08/17 02:04:13;;;;;;;7.00;2.22;;;16.70;92.40;;;;;;5020985;28;20065;-69
2023/08/17 02:06:38;;;;;;;6.05;1.83;;;16.80;92.40;;;;;;5026606;28;20106;-68
2023/08/17 02:09:04;;;;;;;12.00;2.15;;;16.80;92.40;;;;;;5023647;28;20073;-68
2023/08/17 02:11:30;;;;;;;8.75;2.20;;;16.80;92.30;;;;;;5028521;28;20025;-68
2023/08/17 02:13:55;;;;;;;6.63;2.20;;;16.80;92.50;;;;;;5024322;28;20041;-68
2023/08/17 02:16:20;;;;;;;9.13;2.13;;;16.80;92.60;;;;;;5025167;28;20058;-68
2023/08/17 02:18:46;;;;;;;7.85;2.00;;;16.90;92.30;;;;;;5028999;28;20041;-68
2023/08/17 02:21:11;;;;;;;7.78;2.42;;;16.80;92.30;;;;;;5022071;28;20505;-68
2023/08/17 02:23:37;;;;;;;8.02;2.15;;;16.90;92.40;;;;;;5025105;28;20038;-68
2023/08/17 02:26:02;;;;;;;7.65;2.03;;;16.90;92.40;;;;;;5016874;28;20628;-68
2023/08/17 02:28:28;;;;;;;9.85;2.08;;;16.90;92.40;;;;;;5025955;28;20375;-68
2023/08/17 02:30:58;;;;;;;7.80;2.35;;;16.80;92.30;;;;;;5028852;28;20489;-68
2023/08/17 02:33:24;;;;;;;8.70;2.15;;;16.80;92.40;;;;;;5032258;28;20030;-68
2023/08/17 02:35:50;;;;;;;11.52;2.95;;;16.80;92.40;;;;;;5017546;28;20030;-68
2023/08/17 02:38:15;;;;;;;3.63;2.25;;;16.80;92.50;;;;;;5028995;28;20030;-68
2023/08/17 02:40:41;;;;;;;6.35;1.92;;;16.80;92.50;;;;;;5028498;28;20052;-68
2023/08/17 02:43:06;;;;;;;6.45;2.40;;;16.80;92.60;;;;;;5025682;28;20107;-68
2023/08/17 02:45:34;;;;;;;4.65;2.10;;;16.90;92.40;;;;;;5027300;28;20531;-68
2023/08/17 02:47:59;;;;;;;8.48;2.30;;;16.80;92.40;;;;;;5028069;28;20615;-69
2023/08/17 02:50:25;;;;;;;7.45;2.38;;;16.80;92.60;;;;;;5029161;28;20026;-68
2023/08/17 02:52:50;;;;;;;7.72;2.08;;;16.80;92.30;;;;;;5022554;28;20119;-69
2023/08/17 02:55:16;;;;;;;8.05;2.55;;;16.70;92.40;;;;;;5029416;28;20036;-68
2023/08/17 02:57:41;;;;;;;8.57;2.30;;;16.70;92.60;;;;;;5024608;28;20079;-69
2023/08/17 03:00:07;;;;;;;7.03;2.10;;;16.70;92.60;;;;;;5031264;28;20491;-69
2023/08/17 03:02:32;;;;;;;5.15;1.83;;;16.70;92.50;;;;;;5031880;28;20033;-68
2023/08/17 03:04:58;;;;;;;5.93;2.25;;;16.70;92.30;;;;;;5032055;28;20069;-68
2023/08/17 03:07:23;;;;;;;5.15;2.10;;;16.60;92.40;;;;;;5026959;28;20044;-69
2023/08/17 03:09:49;;;;;;;7.47;1.92;;;16.60;92.40;;;;;;5025523;28;20034;-68
2023/08/17 03:12:14;;;;;;;8.68;2.22;;;16.60;92.50;;;;;;5027440;28;20033;-69
2023/08/17 03:14:40;;;;;;;6.78;1.70;;;16.60;92.40;;;;;;5034564;28;20041;-68
2023/08/17 03:17:05;;;;;;;5.55;1.95;;;16.60;92.50;;;;;;5030514;28;20524;-68
2023/08/17 03:19:31;;;;;;;6.28;2.00;;;16.50;92.40;;;;;;5041655;28;20040;-68
2023/08/17 03:21:56;;;;;;;6.40;2.10;;;16.60;92.30;;;;;;5038547;28;20079;-68
2023/08/17 03:24:22;;;;;;;6.15;2.35;;;16.50;92.10;;;;;;5028383;28;20053;-68
2023/08/17 03:26:48;;;;;;;4.22;1.75;;;16.50;92.40;;;;;;5029096;28;20025;-68
2023/08/17 03:29:13;;;;;;;8.02;1.98;;;16.50;92.30;;;;;;5031319;28;20034;-68
2023/08/17 03:31:38;;;;;;;5.30;1.95;;;16.50;92.30;;;;;;5030233;28;20119;-68
2023/08/17 03:34:04;;;;;;;5.78;1.80;;;16.50;92.40;;;;;;5026195;28;20378;-68
2023/08/17 03:36:29;;;;;;;5.65;1.80;;;16.50;92.50;;;;;;5019903;28;20033;-68
2023/08/17 03:38:55;;;;;;;4.22;1.42;;;16.50;92.40;;;;;;5035702;28;20067;-68
2023/08/17 03:41:23;;;;;;;6.82;2.17;;;16.50;92.40;;;;;;5036898;28;20104;-68
2023/08/17 03:43:49;;;;;;;4.57;1.65;;;16.50;92.40;;;;;;5023123;28;20038;-69
2023/08/17 03:46:14;;;;;;;7.18;1.90;;;16.50;92.50;;;;;;5035790;28;20418;-68
2023/08/17 03:48:39;;;;;;;7.72;1.80;;;16.50;92.50;;;;;;5040446;28;20122;-68
2023/08/17 03:51:05;;;;;;;10.63;2.13;;;16.50;92.60;;;;;;5027533;28;20032;-69
2023/08/17 03:53:31;;;;;;;9.77;2.47;;;16.50;92.50;;;;;;5034906;28;20029;-67
2023/08/17 03:55:56;;;;;;;11.65;3.50;;;16.50;92.30;;;;;;5030507;28;20033;-68
2023/08/17 03:58:22;;;;;;;12.77;4.47;;;16.50;92.10;;;;;;5025854;28;20048;-68
2023/08/17 04:00:51;;;;;;;13.90;4.95;;;16.60;92.20;;;;;;5023881;28;20056;-68
2023/08/17 04:03:16;;;;;;;20.35;6.20;;;16.60;92.10;;;;;;5014145;28;20382;-68
2023/08/17 04:05:42;;;;;;;17.88;6.35;;;16.60;92.00;;;;;;5026568;28;20032;-69
2023/08/17 04:08:08;;;;;;;16.38;6.18;;;16.60;91.80;;;;;;5027711;28;20529;-68
2023/08/17 04:10:34;;;;;;;14.07;5.38;;;16.70;91.90;;;;;;5031560;28;20506;-68
2023/08/17 04:12:59;;;;;;;13.40;5.50;;;16.70;91.50;;;;;;5022975;28;20033;-68
2023/08/17 04:15:25;;;;;;;10.52;2.38;;;16.70;91.50;;;;;;5014274;28;20394;-68
2023/08/17 04:17:50;;;;;;;10.65;2.28;;;16.70;91.30;;;;;;5019521;28;20034;-69
2023/08/17 04:20:16;;;;;;;4.10;1.60;;;16.70;91.30;;;;;;5022377;28;20034;-68
2023/08/17 04:22:41;;;;;;;5.78;1.50;;;16.80;91.30;;;;;;5026876;28;20043;-68
2023/08/17 04:25:07;;;;;;;8.45;2.58;;;16.80;90.90;;;;;;5023820;28;20112;-69
2023/08/17 04:27:33;;;;;;;5.03;1.60;;;16.80;90.80;;;;;;5025316;28;20062;-67
2023/08/17 04:29:59;;;;;;;7.72;1.80;;;16.80;90.70;;;;;;5025533;28;20137;-69
2023/08/17 04:32:25;;;;;;;7.93;1.88;;;16.90;90.70;;;;;;5026644;28;20025;-68
2023/08/17 04:34:50;;;;;;;8.20;1.77;;;16.80;90.70;;;;;;5024529;28;20488;-69
2023/08/17 04:37:16;;;;;;;7.18;1.90;;;16.90;90.50;;;;;;5032354;28;20075;-68
2023/08/17 04:39:43;;;;;;;4.57;1.70;;;16.90;90.60;;;;;;5033573;28;20033;-69
2023/08/17 04:42:08;;;;;;;6.05;1.60;;;16.90;90.50;;;;;;5019496;28;20038;-69
2023/08/17 04:44:34;;;;;;;7.65;1.52;;;16.90;90.50;;;;;;5029589;28;20076;-68
2023/08/17 04:47:00;;;;;;;4.85;1.52;;;17.00;90.60;;;;;;5036388;28;20177;-69
2023/08/17 04:49:26;;;;;;;7.93;1.60;;;16.90;90.70;;;;;;5038958;28;20072;-69
2023/08/17 04:51:51;;;;;;;6.43;1.92;;;17.00;90.80;;;;;;5022788;28;20053;-69
2023/08/17 04:54:17;;;;;;;5.35;1.67;;;16.90;90.60;;;;;;5030698;28;20033;-69
2023/08/17 04:56:43;;;;;;;6.90;1.77;;;17.00;90.70;;;;;;5022850;28;20067;-67
2023/08/17 04:59:09;;;;;;;5.35;1.67;;;16.90;90.90;;;;;;5017309;28;20084;-68
2023/08/17 05:01:35;;;;;;;5.18;1.52;;;16.90;90.60;;;;;;5026447;28;20461;-69
2023/08/17 05:04:01;;;;;;;5.55;1.38;;;16.90;90.90;;;;;;5028150;28;20528;-69
2023/08/17 05:06:28;;;;;;;7.97;1.58;;;16.90;91.10;;;;;;5020536;28;20144;-69
2023/08/17 05:08:53;;;;;;;4.07;1.63;;;16.90;91.30;;;;;;5031870;28;20080;-68
2023/08/17 05:11:19;;;;;;;6.13;1.63;;;16.90;91.70;;;;;;5018737;28;20061;-69
2023/08/17 05:13:44;;;;;;;11.23;1.88;;;16.80;92.00;;;;;;5026808;28;20045;-70
2023/08/17 05:16:10;;;;;;;7.70;2.00;;;16.70;92.50;;;;;;5023263;28;21640;-68
2023/08/17 05:18:35;;;;;;;9.07;2.00;;;16.60;92.90;;;;;;5041066;28;20068;-68
2023/08/17 05:21:01;;;;;;;8.60;2.05;;;16.60;93.60;;;;;;5030443;28;20080;-68
2023/08/17 05:23:26;;;;;;;6.65;1.98;;;16.50;94.30;;;;;;5037504;28;20060;-70
2023/08/17 05:25:52;;;;;;;7.10;2.40;;;16.40;94.90;;;;;;5030178;28;20139;-68
2023/08/17 05:28:17;;;;;;;6.03;2.03;;;16.30;95.40;;;;;;5029521;28;20028;-69
2023/08/17 05:30:43;;;;;;;4.60;1.90;;;16.30;95.60;;;;;;5032660;28;20087;-68
2023/08/17 05:33:09;;;;;;;10.55;2.85;;;16.20;96.10;;;;;;5026107;28;20060;-68
2023/08/17 05:35:34;;;;;;;9.18;2.70;;;16.20;96.40;;;;;;5031958;28;20033;-68
2023/08/17 05:38:00;;;;;;;6.85;2.38;;;16.10;96.80;;;;;;5026974;28;20146;-68
2023/08/17 05:40:25;;;;;;;9.98;3.20;;;16.10;97.00;;;;;;5045630;28;20029;-68
2023/08/17 05:42:51;;;;;;;6.60;2.45;;;16.10;97.10;;;;;;5018524;28;20495;-67
2023/08/17 05:45:16;;;;;;;7.38;3.08;;;16.10;97.30;;;;;;5037828;28;20358;-69
2023/08/17 05:47:42;;;;;;;7.00;3.17;;;16.00;97.50;;;;;;5028183;28;20112;-68
2023/08/17 05:50:08;;;;;;;11.82;3.45;;;16.00;97.70;;;;;;5026840;28;20151;-68
2023/08/17 05:52:33;;;;;;;10.38;3.80;;;16.00;97.80;;;;;;5028747;28;20442;-68
2023/08/17 05:54:59;;;;;;;11.00;3.38;;;16.00;97.90;;;;;;5036119;28;20120;-68
2023/08/17 05:57:24;;;;;;;10.93;3.35;;;16.00;98.10;;;;;;5031642;28;20026;-68
2023/08/17 05:59:50;;;;;;;9.27;3.85;;;16.00;98.30;;;;;;5027001;28;20037;-68
2023/08/17 06:02:15;;;;;;;11.93;4.15;;;15.90;98.30;;;;;;5025814;28;20120;-69
2023/08/17 06:04:41;;;;;;;11.85;3.90;;;15.90;98.40;;;;;;5027074;28;20056;-68
2023/08/17 06:07:06;;;;;;;12.32;4.78;;;15.90;98.40;;;;;;5029356;28;20037;-69
2023/08/17 06:09:32;;;;;;;8.50;3.92;;;15.80;98.50;;;;;;5023927;28;20033;-68
2023/08/17 06:11:57;;;;;;;9.68;3.78;;;15.80;98.50;;;;;;5022201;28;20520;-68
2023/08/17 06:14:23;;;;;;;10.55;3.83;;;15.80;98.70;;;;;;5021475;28;20036;-68
2023/08/17 06:16:48;;;;;;;13.77;3.45;;;15.70;98.70;;;;;;5029355;28;20482;-68
2023/08/17 06:19:14;;;;;;;11.93;4.07;;;15.60;98.50;;;;;;5029882;28;20032;-68
2023/08/17 06:21:39;;;;;;;6.32;3.50;;;15.60;98.70;;;;;;5025142;28;20478;-68
2023/08/17 06:24:05;;;;;;;8.68;3.72;;;15.60;98.70;;;;;;5023734;28;20033;-68
2023/08/17 06:26:31;;;;;;;8.57;3.30;;;15.50;98.50;;;;;;5027359;28;20497;-68
2023/08/17 06:28:56;;;;;;;9.93;3.50;;;15.50;98.70;;;;;;5016546;28;20044;-68
2023/08/17 06:31:27;;;;;;;10.50;3.60;;;15.50;98.60;;;;;;5020336;28;20469;-69
2023/08/17 06:33:52;;;;;;;7.97;3.53;;;15.50;98.70;;;;;;5025185;28;20033;-68
2023/08/17 06:36:18;;;;;;;6.32;3.35;;;15.50;98.70;;;;;;5021215;28;20291;-69
2023/08/17 06:38:43;;;;;;;10.50;3.88;;;15.50;98.80;;;;;;5022359;28;20117;-69
2023/08/17 06:41:09;;;;;;;10.20;4.50;;;15.60;98.80;;;;;;5030921;28;20375;-68
2023/08/17 06:43:34;;;;;;;11.05;4.03;;;15.60;98.80;;;;;;5029655;28;20053;-69
2023/08/17 06:46:01;;;;;;;10.50;4.40;;;15.60;98.90;;;;;;5036604;28;20091;-68
2023/08/17 06:48:27;;;;;;;10.15;3.70;;;15.60;98.90;;;;;;5016961;28;20021;-69
2023/08/17 06:50:53;;;;;;;11.63;4.07;;;15.50;98.80;;;;;;5024115;28;21040;-68
2023/08/17 06:53:18;;;;;;;15.10;3.75;;;15.60;98.90;;;;;;5027777;28;20041;-68
2023/08/17 06:55:44;;;;;;;7.45;3.50;;;15.60;98.90;;;;;;5032026;28;20030;-68
2023/08/17 06:58:09;;;;;;;10.65;4.07;;;15.60;98.90;;;;;;5016988;28;20037;-68
2023/08/17 07:00:35;;;;;;;8.15;4.10;;;15.60;98.70;;;;;;5023443;28;20029;-69
2023/08/17 07:03:01;;;;;;;11.98;3.80;;;15.60;98.80;;;;;;5027547;28;20057;-68
2023/08/17 07:05:27;;;;;;;8.18;3.67;;;15.60;98.80;;;;;;5024418;28;20124;-68
2023/08/17 07:07:52;;;;;;;9.00;3.58;;;15.60;98.80;;;;;;5023273;28;20052;-69
2023/08/17 07:10:18;;;;;;;8.10;3.47;;;15.50;98.60;;;;;;5018543;28;20044;-68
2023/08/17 07:12:44;;;;;;;6.85;3.20;;;15.50;98.70;;;;;;5027222;28;20363;-69
2023/08/17 07:15:10;;;;;;;5.63;2.75;;;15.50;98.70;;;;;;5024345;28;20111;-68
2023/08/17 07:17:36;;;;;;;5.45;2.40;;;15.30;98.20;;;;;;5026472;28;20029;-68
2023/08/17 07:20:02;;;;;;;6.50;2.80;;;15.30;98.20;;;;;;5037834;28;20022;-68
2023/08/17 07:22:28;;;;;;;7.47;2.70;;;15.30;98.20;;;;;;5038935;28;20062;-68
2023/08/17 07:24:53;;;;;;;7.68;2.58;;;15.30;98.10;;;;;;5028499;28;20080;-68
2023/08/17 07:27:19;;;;;;;3.90;2.20;;;15.20;98.10;;;;;;5025090;28;20029;-68
2023/08/17 07:29:44;;;;;;;2.58;1.90;;;15.10;97.90;;;;;;5028393;28;20116;-68
2023/08/17 07:32:09;;;;;;;5.10;1.92;;;15.10;97.80;;;;;;5018732;28;20042;-68
2023/08/17 07:34:36;;;;;;;3.97;1.92;;;15.10;97.50;;;;;;5025886;28;20025;-68
2023/08/17 07:37:03;;;;;;;3.42;1.80;;;15.10;97.90;;;;;;5029346;28;20029;-68
2023/08/17 07:39:29;;;;;;;4.20;1.90;;;15.10;98.00;;;;;;5029847;28;20498;-68
2023/08/17 07:41:54;;;;;;;3.35;1.88;;;15.10;97.80;;;;;;5028726;28;20117;-68
2023/08/17 07:44:20;;;;;;;4.15;2.08;;;15.00;97.10;;;;;;5023304;28;20382;-69
2023/08/17 07:46:45;;;;;;;3.58;2.10;;;15.10;97.70;;;;;;5047478;28;20156;-68
2023/08/17 07:49:11;;;;;;;4.38;1.92;;;15.10;97.90;;;;;;5020359;28;20044;-68
2023/08/17 07:51:36;;;;;;;5.90;2.10;;;15.10;97.90;;;;;;5031802;28;20429;-68
2023/08/17 07:54:02;;;;;;;5.00;1.98;;;15.10;97.50;;;;;;5030067;28;20040;-68
2023/08/17 07:56:27;;;;;;;4.18;1.65;;;15.20;97.70;;;;;;5041103;28;20033;-68
2023/08/17 07:58:54;;;;;;;4.10;1.60;;;15.10;97.10;;;;;;5028394;28;20041;-68
2023/08/17 08:01:19;;;;;;;4.25;1.98;;;15.10;97.50;;;;;;5034826;28;20061;-68
2023/08/17 08:03:45;;;;;;;3.10;1.80;;;15.30;97.70;;;;;;5023964;28;20053;-69
2023/08/17 08:06:10;;;;;;;3.25;1.65;;;15.30;97.70;;;;;;5028458;28;20025;-68
2023/08/17 08:08:36;;;;;;;6.47;1.70;;;15.40;97.70;;;;;;5020965;28;20025;-68
2023/08/17 08:11:01;;;;;;;4.88;2.03;;;15.40;97.60;;;;;;5025210;28;20039;-69
2023/08/17 08:13:26;;;;;;;3.78;2.03;;;15.50;97.70;;;;;;5016959;28;20034;-69
2023/08/17 08:15:52;;;;;;;3.20;1.90;;;15.60;97.80;;;;;;5019448;28;20042;-69
2023/08/17 08:18:17;;;;;;;3.58;2.00;;;15.50;97.50;;;;;;5030340;28;20042;-69
2023/08/17 08:20:43;;;;;;;2.80;1.67;;;15.50;97.60;;;;;;5028840;28;20044;-68
2023/08/17 08:23:09;;;;;;;2.40;1.55;;;15.50;97.50;;;;;;5017695;28;20037;-69
2023/08/17 08:25:34;;;;;;;2.67;1.65;;;15.50;97.60;;;;;;5030445;28;20056;-68
2023/08/17 08:27:59;;;;;;;3.80;1.80;;;15.60;97.60;;;;;;5029669;28;20390;-68
2023/08/17 08:30:25;;;;;;;3.05;2.00;;;15.70;97.70;;;;;;5023535;28;20033;-69
2023/08/17 08:32:51;;;;;;;4.25;2.42;;;15.80;97.90;;;;;;5021732;28;20041;-69
2023/08/17 08:35:17;;;;;;;9.75;2.60;;;16.00;97.80;;;;;;5025350;28;20049;-69
2023/08/17 08:37:42;;;;;;;9.75;2.50;;;16.00;97.90;;;;;;5034186;28;20041;-69
2023/08/17 08:40:14;;;;;;;6.70;2.30;;;16.10;97.80;;;;;;5020243;28;20081;-70
2023/08/17 08:42:40;;;;;;;5.63;2.35;;;16.20;97.70;;;;;;5021272;28;20033;-69
2023/08/17 08:45:06;;;;;;;6.15;2.55;;;16.30;97.50;;;;;;5018376;28;20022;-69
2023/08/17 08:47:35;;;;;;;5.13;2.33;;;16.40;97.50;;;;;;5026990;28;20113;-69
2023/08/17 08:50:03;;;;;;;3.78;2.25;;;16.50;97.40;;;;;;5023629;28;20452;-69
2023/08/17 08:52:34;;;;;;;3.38;2.13;;;16.50;97.40;;;;;;5022492;28;20040;-70
2023/08/17 08:55:11;;;;;;;;;;;16.50;97.20;;;;;;5022632;28;20064;-69
2023/08/17 08:57:37;;;;;;;4.90;1.90;;;16.40;96.90;;;;;;5024060;28;19913;-69
2023/08/17 09:00:03;;;;;;;3.60;1.85;;;16.40;97.10;;;;;;5026064;28;20061;-70
2023/08/17 09:02:30;;;;;;;4.72;1.85;;;16.30;96.80;;;;;;5038726;28;20448;-69
2023/08/17 09:04:56;;;;;;;3.03;2.10;;;16.50;97.20;;;;;;5028555;28;20029;-68
2023/08/17 09:07:23;;;;;;;3.47;1.98;;;16.50;97.10;;;;;;5027540;28;20039;-69
2023/08/17 09:09:48;;;;;;;5.45;2.60;;;16.50;97.40;;;;;;5025819;28;20048;-69
2023/08/17 09:12:14;;;;;;;5.90;2.33;;;16.50;97.20;;;;;;5032148;28;20028;-69
2023/08/17 09:14:40;;;;;;;4.45;2.25;;;16.50;97.10;;;;;;5030537;28;20429;-69
2023/08/17 09:17:06;;;;;;;5.65;2.38;;;16.50;97.00;;;;;;5025100;28;20041;-69
2023/08/17 09:19:33;;;;;;;7.32;2.70;;;16.40;97.00;;;;;;5021445;28;20033;-69
2023/08/17 09:21:58;;;;;;;6.93;2.53;;;16.40;97.10;;;;;;5018475;28;20053;-69
2023/08/17 09:24:24;;;;;;;6.10;2.63;;;16.40;97.40;;;;;;5028452;28;20076;-69
2023/08/17 09:26:50;;;;;;;5.03;2.97;;;16.50;97.50;;;;;;5018079;28;20037;-69
2023/08/17 09:29:20;;;;;;;5.15;2.80;;;16.50;97.50;;;;;;5025220;28;20021;-69
2023/08/17 09:31:47;;;;;;;5.78;2.58;;;16.50;97.50;;;;;;5022471;28;20037;-69
2023/08/17 09:34:15;;;;;;;4.80;2.78;;;16.60;97.50;;;;;;5022141;28;20049;-68
2023/08/17 09:36:41;;;;;;;9.57;3.05;;;16.60;97.50;;;;;;5024370;28;20121;-69
2023/08/17 09:39:06;;;;;;;7.60;2.88;;;16.40;97.40;;;;;;5025802;28;20108;-69
2023/08/17 09:41:41;;;;;;;5.32;2.70;;;16.30;97.00;;;;;;5019885;28;20096;-69
2023/08/17 09:44:07;;;;;;;4.85;2.42;;;16.30;97.30;;;;;;5028873;28;20569;-69
2023/08/17 09:46:32;;;;;;;9.38;2.83;;;16.40;97.60;;;;;;5020707;28;20064;-69
2023/08/17 09:48:58;;;;;;;8.57;2.78;;;16.30;97.50;;;;;;5030915;28;20450;-69
2023/08/17 09:51:24;;;;;;;4.35;2.22;;;16.30;97.90;;;;;;5030588;28;20377;-69
2023/08/17 09:53:53;;;;;;;5.65;2.35;;;16.30;97.80;;;;;;5031997;28;20060;-69
2023/08/17 09:56:23;;;;;;;6.15;2.50;;;16.30;97.90;;;;;;5032858;28;20041;-70
2023/08/17 09:58:49;;;;;;;4.72;1.90;;;16.20;97.80;;;;;;5018805;28;20045;-70
2023/08/17 10:01:15;;;;;;;4.55;2.05;;;16.20;97.90;;;;;;5019977;28;20068;-69
2023/08/17 10:03:49;;;;;;;3.35;1.50;;;16.20;98.10;;;;;;5013783;28;20059;-69
2023/08/17 10:06:24;;;;;;;4.45;1.70;;;16.10;97.90;;;;;;5023591;28;20068;-70
2023/08/17 10:08:52;;;;;;;6.30;1.70;;;16.00;97.90;;;;;;5020570;28;20157;-69
2023/08/17 10:11:21;;;;;;;5.68;1.98;;;16.10;98.30;;;;;;5023448;28;20068;-69
2023/08/17 10:14:05;;;;;;;5.35;1.73;;;16.10;98.40;;;;;;5025282;28;20124;-70
2023/08/17 10:16:41;;;;;;;7.22;1.73;;;16.10;98.30;;;;;;5018588;28;20025;-70
2023/08/17 10:19:25;;;;;;;7.43;1.83;;;16.00;98.20;;;;;;5043594;28;20030;-69
2023/08/17 10:21:58;;;;;;;4.15;2.00;;;15.90;97.90;;;;;;5032843;28;20627;-70
2023/08/17 10:24:23;;;;;;;3.08;1.70;;;16.00;98.00;;;;;;5031134;28;20118;-70
2023/08/17 10:26:50;;;;;;;2.75;1.85;;;16.00;98.10;;;;;;5021294;28;20117;-70
2023/08/17 10:29:16;;;;;;;5.03;1.70;;;16.00;98.20;;;;;;5027136;28;20064;-69
2023/08/17 10:31:47;;;;;;;2.95;1.65;;;15.80;98.00;;;;;;5016762;28;20160;-70
2023/08/17 10:34:13;;;;;;;;;;;15.70;97.90;;;;;;5028569;28;20029;-70
2023/08/17 10:36:40;;;;;;;5.38;1.92;;;15.80;98.20;;;;;;5027039;28;20031;-70
2023/08/17 10:39:22;;;;;;;3.05;1.70;;;15.80;98.30;;;;;;5021330;28;20388;-69
2023/08/17 10:41:49;;;;;;;4.10;2.03;;;16.00;98.40;;;;;;5029284;28;20041;-70
2023/08/17 10:44:18;;;;;;;5.13;1.98;;;16.00;98.40;;;;;;5022673;28;20424;-69
2023/08/17 10:46:45;;;;;;;3.53;2.28;;;16.10;98.60;;;;;;5026251;28;20053;-71
2023/08/17 10:49:26;;;;;;;4.25;1.88;;;16.20;98.60;;;;;;5021937;28;20393;-69
2023/08/17 10:52:06;;;;;;;3.45;2.40;;;16.10;98.30;;;;;;5034735;28;20132;-70
2023/08/17 10:54:39;;;;;;;4.55;2.10;;;16.10;98.30;;;;;;5031533;28;20034;-70
2023/08/17 10:57:25;;;;;;;4.07;2.22;;;16.10;98.40;;;;;;5036221;28;20032;-70
2023/08/17 11:00:31;;;;;;;3.42;1.88;;;16.10;98.20;;;;;;5031604;28;20088;-70
2023/08/17 11:02:59;;;;;;;2.58;1.55;;;16.00;98.30;;;;;;5035768;28;20030;-70
2023/08/17 11:05:40;;;;;;;3.03;1.63;;;16.00;98.40;;;;;;5035769;28;20033;-70
2023/08/17 11:08:26;;;;;;;4.43;1.40;;;16.00;98.40;;;;;;5025686;28;20425;-70
2023/08/17 11:10:59;;;;;;;1.20;1.05;;;16.00;98.40;;;;;;5016239;28;20103;-70
2023/08/17 11:13:27;;;;;;;3.13;1.52;;;15.90;98.10;;;;;;5026458;28;20038;-70
2023/08/17 11:15:52;;;;;;;2.97;1.50;;;15.90;98.20;;;;;;5028911;28;20112;-70
2023/08/17 11:18:18;;;;;;;5.43;1.77;;;16.00;98.50;;;;;;5026997;28;20570;-71
2023/08/17 11:20:43;;;;;;;2.55;1.73;;;15.90;98.60;;;;;;5035816;28;20486;-70
2023/08/17 11:23:10;;;;;;;3.20;1.33;;;16.00;98.60;;;;;;5021156;28;20124;-70
2023/08/17 11:25:37;;;;;;;3.63;1.45;;;15.90;98.40;;;;;;5031608;28;20072;-70
2023/08/17 11:28:05;;;;;;;3.55;1.60;;;16.00;98.20;;;;;;5030756;28;20026;-70
2023/08/17 11:30:33;;;;;;;1.65;1.30;;;16.00;98.20;;;;;;5024681;28;20148;-71
2023/08/17 11:32:59;;;;;;;3.55;1.38;;;15.80;98.00;;;;;;5024297;28;20655;-70
2023/08/17 11:35:25;;;;;;;2.67;1.40;;;15.80;98.20;;;;;;5041375;28;20030;-70
2023/08/17 11:37:50;;;;;;;2.25;1.15;;;15.80;98.00;;;;;;5028364;28;20033;-70
2023/08/17 11:40:16;;;;;;;2.15;1.38;;;15.80;98.00;;;;;;5038673;28;20144;-70
2023/08/17 11:42:42;;;;;;;2.97;1.35;;;15.70;97.80;;;;;;5027589;28;20565;-70
2023/08/17 11:45:11;;;;;;;3.70;1.25;;;15.60;97.60;;;;;;5030743;28;20029;-70
2023/08/17 11:47:41;;;;;;;4.43;1.20;;;15.60;97.50;;;;;;5030074;28;20060;-71
2023/08/17 11:50:09;;;;;;;6.93;1.40;;;15.70;98.00;;;;;;5048088;28;20021;-71
2023/08/17 11:52:36;;;;;;;5.68;1.30;;;15.70;98.10;;;;;;5029991;28;20112;-70
2023/08/17 11:55:04;;;;;;;5.35;1.50;;;15.80;98.10;;;;;;5032589;28;20075;-70
2023/08/17 11:57:29;;;;;;;2.42;1.33;;;15.80;98.10;;;;;;5017297;28;20084;-71
2023/08/17 11:59:56;;;;;;;8.63;1.58;;;15.90;98.00;;;;;;5029066;28;20033;-69
2023/08/17 12:02:24;;;;;;;5.47;1.52;;;16.00;97.80;;;;;;5022220;28;20041;-70
2023/08/17 12:04:50;;;;;;;2.03;1.20;;;16.00;97.90;;;;;;5025429;28;20064;-70
2023/08/17 12:07:18;;;;;;;4.47;1.40;;;15.80;96.60;;;;;;5032292;28;20458;-70
2023/08/17 12:09:45;;;;;;;1.38;0.90;;;16.00;97.40;;;;;;5030514;28;20533;-70
2023/08/17 12:12:11;;;;;;;1.88;1.10;;;15.80;95.60;;;;;;5023973;28;20037;-72
2023/08/17 12:14:41;;;;;;;1.98;1.35;;;15.90;96.60;;;;;;5026801;28;20504;-72
2023/08/17 12:17:06;;;;;;;2.05;1.00;;;15.90;96.90;;;;;;5014684;28;20037;-72
2023/08/17 12:19:32;;;;;;;3.60;1.20;;;16.10;97.30;;;;;;5031042;28;20046;-72
2023/08/17 12:21:57;;;;;;;1.52;1.20;;;16.30;97.10;;;;;;5021748;28;20037;-72
2023/08/17 12:24:26;;;;;;;1.33;1.00;;;16.30;96.60;;;;;;5022148;28;20121;-73
2023/08/17 12:26:52;;;;;;;1.83;0.95;;;16.20;96.00;;;;;;5019083;28;20105;-72
2023/08/17 12:29:17;;;;;;;1.50;0.80;;;16.20;96.30;;;;;;5021510;28;20124;-70
2023/08/17 12:31:44;;;;;;;0.68;0.60;;;16.10;95.80;;;;;;5018151;28;20486;-71
2023/08/17 12:34:09;;;;;;;3.85;1.00;;;16.00;96.10;;;;;;5025295;28;20053;-71
2023/08/17 12:36:37;;;;;;;1.42;0.95;;;16.10;96.50;;;;;;5026152;28;20034;-71
2023/08/17 12:39:03;;;;;;;1.70;0.90;;;16.10;96.50;;;;;;5019629;28;20060;-71
2023/08/17 12:41:29;;;;;;;2.88;1.00;;;16.10;96.80;;;;;;5030187;28;20044;-72
2023/08/17 12:43:54;;;;;;;1.67;0.90;;;16.30;96.90;;;;;;5044649;28;20453;-73